Elizabeth, New Jersey
Current Conditions -  °F | °C
As of 9:51 PM on Friday 21 Nov 2014 (Local Time) from KEWR Reporting Station
Clear Clear  
Wind Chill: 30°   Ceiling: Unl
Heat Index: 30°   Visibility: 10mi
Dew Point:   Wind: 3mph
Humidity: 42%   Direction: 200°SSW
Pressure: 30.5"   Gusts: NA
Location:  40.66°N, 74.21°W
Report Text: KEWR 220251Z 20003KT 10SM CLR M01/M13 A3050 RMK AO2 SLP329 T10121128 51009
Loading
Personal Weather Stations






























Interactive Weather Map New forecast layout! Learn more

10-Day Weather Forecast

Advertisements
Track Severe Weather on mobile